sensor_id;sensor_type;location;lat;lon;timestamp;pressure;altitude;pressure_sealevel;temperature;humidity
36304;BME280;22335;49.800;8.596;2023-02-15T00:01:35;102059.63;;;7.48;54.46
36304;BME280;22335;49.800;8.596;2023-02-15T00:08:20;102049.56;;;7.48;54.46
36304;BME280;22335;49.800;8.596;2023-02-15T00:15:04;102045.28;;;7.59;53.92
36304;BME280;22335;49.800;8.596;2023-02-15T00:21:48;102013.91;;;7.56;54.17
36304;BME280;22335;49.800;8.596;2023-02-15T00:28:33;102016.72;;;7.68;54.17
36304;BME280;22335;49.800;8.596;2023-02-15T00:35:16;102023.44;;;7.84;54.41
36304;BME280;22335;49.800;8.596;2023-02-15T00:42:00;102024.56;;;7.76;53.82
36304;BME280;22335;49.800;8.596;2023-02-15T00:48:45;102020.00;;;7.70;54.34
36304;BME280;22335;49.800;8.596;2023-02-15T00:55:28;102021.63;;;7.78;53.79
36304;BME280;22335;49.800;8.596;2023-02-15T01:02:12;102021.00;;;7.57;54.07
36304;BME280;22335;49.800;8.596;2023-02-15T01:08:56;102015.09;;;7.60;53.81
36304;BME280;22335;49.800;8.596;2023-02-15T01:15:41;102014.03;;;7.61;54.22
36304;BME280;22335;49.800;8.596;2023-02-15T01:22:25;102011.25;;;7.68;53.83
36304;BME280;22335;49.800;8.596;2023-02-15T01:29:10;102008.75;;;7.67;54.36
36304;BME280;22335;49.800;8.596;2023-02-15T01:35:56;102007.22;;;7.52;54.59
36304;BME280;22335;49.800;8.596;2023-02-15T01:42:41;102008.66;;;7.55;54.31
36304;BME280;22335;49.800;8.596;2023-02-15T01:49:27;101996.34;;;7.52;53.95
36304;BME280;22335;49.800;8.596;2023-02-15T01:56:14;101997.41;;;7.51;54.27
36304;BME280;22335;49.800;8.596;2023-02-15T02:03:27;102005.41;;;7.65;54.11
36304;BME280;22335;49.800;8.596;2023-02-15T02:10:22;101980.91;;;7.46;54.40
36304;BME280;22335;49.800;8.596;2023-02-15T02:17:10;101985.28;;;7.29;54.14
36304;BME280;22335;49.800;8.596;2023-02-15T02:24:14;101990.41;;;7.37;54.47
36304;BME280;22335;49.800;8.596;2023-02-15T02:31:46;101979.47;;;7.25;54.47
36304;BME280;22335;49.800;8.596;2023-02-15T02:38:58;101982.03;;;7.20;54.83
36304;BME280;22335;49.800;8.596;2023-02-15T02:45:54;101919.50;;;6.95;54.56
36304;BME280;22335;49.800;8.596;2023-02-15T02:52:43;101962.06;;;7.08;54.85
36304;BME280;22335;49.800;8.596;2023-02-15T02:59:33;101940.94;;;6.85;54.98
36304;BME280;22335;49.800;8.596;2023-02-15T03:06:22;101964.66;;;6.96;55.24
36304;BME280;22335;49.800;8.596;2023-02-15T03:13:10;101961.88;;;7.03;54.55
36304;BME280;22335;49.800;8.596;2023-02-15T03:19:59;101957.88;;;7.05;54.39
36304;BME280;22335;49.800;8.596;2023-02-15T03:26:49;101957.22;;;7.10;55.23
36304;BME280;22335;49.800;8.596;2023-02-15T03:33:35;101954.41;;;6.98;54.80
36304;BME280;22335;49.800;8.596;2023-02-15T03:40:28;101953.41;;;6.92;55.48
36304;BME280;22335;49.800;8.596;2023-02-15T04:02:38;101961.06;;;7.02;55.40
36304;BME280;22335;49.800;8.596;2023-02-15T04:09:25;101954.97;;;7.07;54.55
36304;BME280;22335;49.800;8.596;2023-02-15T04:16:26;101938.84;;;7.05;54.54
36304;BME280;22335;49.800;8.596;2023-02-15T04:23:13;101929.47;;;7.01;55.00
36304;BME280;22335;49.800;8.596;2023-02-15T04:30:15;101934.91;;;7.01;55.40
36304;BME280;22335;49.800;8.596;2023-02-15T04:36:59;101932.94;;;7.08;54.78
36304;BME280;22335;49.800;8.596;2023-02-15T04:43:45;101804.66;;;6.31;55.00
36304;BME280;22335;49.800;8.596;2023-02-15T04:50:28;101937.88;;;7.18;55.23
36304;BME280;22335;49.800;8.596;2023-02-15T04:57:12;101939.19;;;7.15;54.93
36304;BME280;22335;49.800;8.596;2023-02-15T05:03:57;101939.00;;;7.10;55.36
36304;BME280;22335;49.800;8.596;2023-02-15T05:10:41;101939.00;;;7.10;54.80
36304;BME280;22335;49.800;8.596;2023-02-15T05:17:24;101939.38;;;6.96;55.75
36304;BME280;22335;49.800;8.596;2023-02-15T05:24:09;101918.53;;;7.08;55.49
36304;BME280;22335;49.800;8.596;2023-02-15T05:31:10;101920.25;;;7.21;54.84
36304;BME280;22335;49.800;8.596;2023-02-15T05:37:55;101923.06;;;7.14;55.15
36304;BME280;22335;49.800;8.596;2023-02-15T05:44:40;101900.28;;;6.90;55.33
36304;BME280;22335;49.800;8.596;2023-02-15T05:51:23;101887.09;;;6.68;55.66
36304;BME280;22335;49.800;8.596;2023-02-15T05:58:07;101926.41;;;6.73;55.75
36304;BME280;22335;49.800;8.596;2023-02-15T06:04:52;101928.13;;;6.67;56.04
36304;BME280;22335;49.800;8.596;2023-02-15T06:11:35;101938.06;;;6.80;55.64
36304;BME280;22335;49.800;8.596;2023-02-15T06:18:18;101940.03;;;6.91;56.09
36304;BME280;22335;49.800;8.596;2023-02-15T06:25:05;101935.09;;;7.06;55.24
36304;BME280;22335;49.800;8.596;2023-02-15T06:31:51;101931.84;;;7.16;55.49
36304;BME280;22335;49.800;8.596;2023-02-15T06:38:34;101939.56;;;7.19;54.87
36304;BME280;22335;49.800;8.596;2023-02-15T06:45:19;101959.44;;;7.38;55.60
36304;BME280;22335;49.800;8.596;2023-02-15T06:52:03;101964.34;;;7.48;54.78
36304;BME280;22335;49.800;8.596;2023-02-15T06:58:48;101981.22;;;7.56;55.34
36304;BME280;22335;49.800;8.596;2023-02-15T07:05:34;101872.88;;;6.91;54.87
36304;BME280;22335;49.800;8.596;2023-02-15T07:12:17;101974.19;;;7.67;54.66
36304;BME280;22335;49.800;8.596;2023-02-15T07:19:18;101967.44;;;7.70;54.79
36304;BME280;22335;49.800;8.596;2023-02-15T07:26:03;101955.88;;;7.74;54.87
36304;BME280;22335;49.800;8.596;2023-02-15T07:32:47;101959.56;;;7.80;54.76
36304;BME280;22335;49.800;8.596;2023-02-15T07:39:48;101958.88;;;7.84;54.47
36304;BME280;22335;49.800;8.596;2023-02-15T07:46:33;101954.34;;;7.78;54.16
36304;BME280;22335;49.800;8.596;2023-02-15T07:53:16;101951.91;;;7.89;54.54
36304;BME280;22335;49.800;8.596;2023-02-15T08:00:00;101953.34;;;7.91;54.81
36304;BME280;22335;49.800;8.596;2023-02-15T08:06:54;101956.28;;;7.90;55.45
36304;BME280;22335;49.800;8.596;2023-02-15T08:13:37;101955.50;;;8.01;54.89
36304;BME280;22335;49.800;8.596;2023-02-15T08:20:34;101947.94;;;8.03;54.87
36304;BME280;22335;49.800;8.596;2023-02-15T08:27:19;101946.19;;;7.78;54.75
36304;BME280;22335;49.800;8.596;2023-02-15T08:34:08;101942.25;;;7.74;55.59
36304;BME280;22335;49.800;8.596;2023-02-15T08:40:53;101937.41;;;7.58;55.18
36304;BME280;22335;49.800;8.596;2023-02-15T08:47:38;101926.44;;;7.46;55.88
36304;BME280;22335;49.800;8.596;2023-02-15T08:54:21;101916.25;;;7.42;56.06
36304;BME280;22335;49.800;8.596;2023-02-15T09:01:09;101844.69;;;6.86;56.26
36304;BME280;22335;49.800;8.596;2023-02-15T09:07:54;101905.00;;;7.20;56.58
36304;BME280;22335;49.800;8.596;2023-02-15T09:14:38;101901.81;;;7.04;56.50
36304;BME280;22335;49.800;8.596;2023-02-15T09:21:22;101788.53;;;6.36;57.03
36304;BME280;22335;49.800;8.596;2023-02-15T09:28:08;101841.66;;;6.57;57.74
36304;BME280;22335;49.800;8.596;2023-02-15T09:34:52;101899.03;;;7.11;56.77
36304;BME280;22335;49.800;8.596;2023-02-15T09:41:54;101884.75;;;6.97;57.70
36304;BME280;22335;49.800;8.596;2023-02-15T09:49:08;101879.88;;;6.81;57.82
36304;BME280;22335;49.800;8.596;2023-02-15T09:55:59;101889.03;;;6.86;57.79
36304;BME280;22335;49.800;8.596;2023-02-15T10:03:13;101905.59;;;6.85;57.48
36304;BME280;22335;49.800;8.596;2023-02-15T10:10:10;101818.06;;;6.51;57.75
36304;BME280;22335;49.800;8.596;2023-02-15T10:17:08;101916.88;;;7.25;57.60
36304;BME280;22335;49.800;8.596;2023-02-15T10:24:16;101914.81;;;7.39;57.59
36304;BME280;22335;49.800;8.596;2023-02-15T10:31:19;101918.69;;;7.13;57.59
36304;BME280;22335;49.800;8.596;2023-02-15T10:38:15;101915.19;;;7.06;57.80
36304;BME280;22335;49.800;8.596;2023-02-15T10:45:10;101907.53;;;6.96;58.40
36304;BME280;22335;49.800;8.596;2023-02-15T10:52:16;101901.91;;;6.98;58.52
36304;BME280;22335;49.800;8.596;2023-02-15T10:59:20;101902.28;;;7.01;59.04
36304;BME280;22335;49.800;8.596;2023-02-15T11:06:14;101900.69;;;7.12;58.63
36304;BME280;22335;49.800;8.596;2023-02-15T11:13:07;101757.50;;;6.26;58.80
36304;BME280;22335;49.800;8.596;2023-02-15T11:20:02;101879.97;;;7.29;58.72
36304;BME280;22335;49.800;8.596;2023-02-15T11:26:54;101865.16;;;7.44;57.88
36304;BME280;22335;49.800;8.596;2023-02-15T11:33:47;101864.44;;;7.48;58.95
36304;BME280;22335;49.800;8.596;2023-02-15T11:40:35;101731.28;;;6.86;58.31
36304;BME280;22335;49.800;8.596;2023-02-15T11:47:22;101847.78;;;7.75;57.96
36304;BME280;22335;49.800;8.596;2023-02-15T11:54:08;101843.72;;;7.66;58.42
36304;BME280;22335;49.800;8.596;2023-02-15T12:00:54;101849.28;;;7.71;58.05
36304;BME280;22335;49.800;8.596;2023-02-15T12:07:44;101840.53;;;7.69;58.83
36304;BME280;22335;49.800;8.596;2023-02-15T12:14:46;101835.53;;;7.66;58.72
36304;BME280;22335;49.800;8.596;2023-02-15T12:21:34;101822.47;;;7.56;58.31
36304;BME280;22335;49.800;8.596;2023-02-15T12:28:26;101806.31;;;7.43;58.16
36304;BME280;22335;49.800;8.596;2023-02-15T12:35:20;101809.41;;;7.46;59.17
36304;BME280;22335;49.800;8.596;2023-02-15T12:42:15;101809.59;;;7.63;58.53
36304;BME280;22335;49.800;8.596;2023-02-15T12:49:19;101802.44;;;7.92;58.32
36304;BME280;22335;49.800;8.596;2023-02-15T12:56:05;101788.97;;;8.09;58.04
36304;BME280;22335;49.800;8.596;2023-02-15T13:02:52;101784.00;;;8.06;57.83
36304;BME280;22335;49.800;8.596;2023-02-15T13:09:39;101773.44;;;8.09;58.02
36304;BME280;22335;49.800;8.596;2023-02-15T13:16:30;101765.84;;;8.23;57.13
36304;BME280;22335;49.800;8.596;2023-02-15T13:23:24;101749.06;;;8.38;57.35
36304;BME280;22335;49.800;8.596;2023-02-15T13:30:20;101746.69;;;8.53;57.26
36304;BME280;22335;49.800;8.596;2023-02-15T13:37:14;101742.84;;;8.66;56.67
36304;BME280;22335;49.800;8.596;2023-02-15T13:44:07;101731.56;;;8.86;56.90
36304;BME280;22335;49.800;8.596;2023-02-15T13:51:03;101722.00;;;9.00;56.39
36304;BME280;22335;49.800;8.596;2023-02-15T13:58:04;101728.25;;;9.13;56.53
36304;BME280;22335;49.800;8.596;2023-02-15T14:05:15;101578.47;;;8.42;56.18
36304;BME280;22335;49.800;8.596;2023-02-15T14:12:21;101707.78;;;9.27;56.02
36304;BME280;22335;49.800;8.596;2023-02-15T14:19:25;101704.78;;;9.29;55.89
36304;BME280;22335;49.800;8.596;2023-02-15T14:26:16;101706.63;;;9.40;55.63
36304;BME280;22335;49.800;8.596;2023-02-15T14:33:06;101702.16;;;9.34;55.20
36304;BME280;22335;49.800;8.596;2023-02-15T14:39:57;101698.59;;;9.33;55.71
36304;BME280;22335;49.800;8.596;2023-02-15T14:47:05;101679.97;;;9.30;55.27
36304;BME280;22335;49.800;8.596;2023-02-15T14:53:53;101699.25;;;9.40;55.20
36304;BME280;22335;49.800;8.596;2023-02-15T15:00:39;101689.16;;;9.41;55.14
36304;BME280;22335;49.800;8.596;2023-02-15T15:07:25;101695.56;;;9.46;55.21
36304;BME280;22335;49.800;8.596;2023-02-15T15:14:37;101690.91;;;9.47;55.20
36304;BME280;22335;49.800;8.596;2023-02-15T15:21:55;101690.56;;;9.43;55.02
36304;BME280;22335;49.800;8.596;2023-02-15T15:28:53;101684.47;;;9.36;55.43
36304;BME280;22335;49.800;8.596;2023-02-15T15:35:54;101685.53;;;9.35;55.37
36304;BME280;22335;49.800;8.596;2023-02-15T15:50:40;101694.41;;;9.42;54.60
36304;BME280;22335;49.800;8.596;2023-02-15T15:57:28;101644.06;;;9.05;55.00
36304;BME280;22335;49.800;8.596;2023-02-15T16:04:24;101699.47;;;9.22;55.56
36304;BME280;22335;49.800;8.596;2023-02-15T16:11:11;101693.63;;;9.30;55.16
36304;BME280;22335;49.800;8.596;2023-02-15T16:17:58;101688.28;;;9.35;54.90
36304;BME280;22335;49.800;8.596;2023-02-15T16:32:20;101579.97;;;8.62;54.70
36304;BME280;22335;49.800;8.596;2023-02-15T16:39:09;101684.84;;;9.28;54.91
36304;BME280;22335;49.800;8.596;2023-02-15T16:46:03;101683.59;;;9.19;55.02
36304;BME280;22335;49.800;8.596;2023-02-15T16:52:51;101607.25;;;8.62;54.90
36304;BME280;22335;49.800;8.596;2023-02-15T16:59:38;101690.97;;;9.18;54.62
36304;BME280;22335;49.800;8.596;2023-02-15T17:06:26;101658.78;;;8.92;54.72
36304;BME280;22335;49.800;8.596;2023-02-15T17:13:13;101692.25;;;8.99;54.95
36304;BME280;22335;49.800;8.596;2023-02-15T17:19:57;101701.78;;;9.13;54.82
36304;BME280;22335;49.800;8.596;2023-02-15T17:26:40;101705.41;;;9.02;54.87
36304;BME280;22335;49.800;8.596;2023-02-15T17:33:35;101604.81;;;8.25;55.47
36304;BME280;22335;49.800;8.596;2023-02-15T17:40:23;101698.22;;;9.13;54.98
36304;BME280;22335;49.800;8.596;2023-02-15T17:47:09;101711.03;;;9.12;55.26
36304;BME280;22335;49.800;8.596;2023-02-15T17:53:57;101702.13;;;9.17;54.90
36304;BME280;22335;49.800;8.596;2023-02-15T18:01:00;101701.06;;;9.18;55.38
36304;BME280;22335;49.800;8.596;2023-02-15T18:08:10;101694.78;;;9.17;54.96
36304;BME280;22335;49.800;8.596;2023-02-15T18:15:14;101699.25;;;8.95;55.54
36304;BME280;22335;49.800;8.596;2023-02-15T18:21:58;101701.56;;;8.86;55.22
36304;BME280;22335;49.800;8.596;2023-02-15T18:28:42;101697.94;;;8.97;55.12
36304;BME280;22335;49.800;8.596;2023-02-15T18:35:30;101680.09;;;9.07;54.87
36304;BME280;22335;49.800;8.596;2023-02-15T18:42:19;101682.09;;;9.11;55.39
36304;BME280;22335;49.800;8.596;2023-02-15T18:49:03;101676.00;;;9.21;55.23
36304;BME280;22335;49.800;8.596;2023-02-15T18:55:48;101679.81;;;9.20;55.28
36304;BME280;22335;49.800;8.596;2023-02-15T19:02:31;101682.88;;;9.23;54.52
36304;BME280;22335;49.800;8.596;2023-02-15T19:09:17;101629.03;;;8.90;55.22
36304;BME280;22335;49.800;8.596;2023-02-15T19:16:04;101670.63;;;9.26;54.84
36304;BME280;22335;49.800;8.596;2023-02-15T19:22:50;101677.00;;;9.32;55.15
36304;BME280;22335;49.800;8.596;2023-02-15T19:29:35;101552.97;;;8.48;55.06
36304;BME280;22335;49.800;8.596;2023-02-15T19:36:20;101670.63;;;9.26;54.79
36304;BME280;22335;49.800;8.596;2023-02-15T19:43:05;101676.81;;;9.21;55.15
36304;BME280;22335;49.800;8.596;2023-02-15T19:49:57;101680.38;;;9.22;54.83
36304;BME280;22335;49.800;8.596;2023-02-15T19:56:46;101677.16;;;9.25;55.11
36304;BME280;22335;49.800;8.596;2023-02-15T20:03:30;101582.19;;;8.65;54.70
36304;BME280;22335;49.800;8.596;2023-02-15T20:10:15;101682.94;;;9.29;54.88
36304;BME280;22335;49.800;8.596;2023-02-15T20:17:00;101681.31;;;9.28;54.55
36304;BME280;22335;49.800;8.596;2023-02-15T20:23:44;101685.84;;;9.22;54.58
36304;BME280;22335;49.800;8.596;2023-02-15T20:30:29;101677.41;;;9.23;54.59
36304;BME280;22335;49.800;8.596;2023-02-15T20:37:21;101685.66;;;9.12;54.86
36304;BME280;22335;49.800;8.596;2023-02-15T20:44:21;101693.03;;;9.11;55.31
36304;BME280;22335;49.800;8.596;2023-02-15T20:51:10;101676.44;;;9.01;55.02
36304;BME280;22335;49.800;8.596;2023-02-15T20:57:59;101677.69;;;9.10;54.66
36304;BME280;22335;49.800;8.596;2023-02-15T21:04:44;101688.00;;;9.20;54.79
36304;BME280;22335;49.800;8.596;2023-02-15T21:11:27;101701.88;;;9.18;54.44
36304;BME280;22335;49.800;8.596;2023-02-15T21:18:15;101693.25;;;9.10;54.38
36304;BME280;22335;49.800;8.596;2023-02-15T21:25:01;101696.31;;;9.13;54.39
36304;BME280;22335;49.800;8.596;2023-02-15T21:31:45;101688.63;;;9.10;54.50
36304;BME280;22335;49.800;8.596;2023-02-15T21:38:37;101692.69;;;9.08;54.80
36304;BME280;22335;49.800;8.596;2023-02-15T21:45:20;101692.38;;;9.21;54.26
36304;BME280;22335;49.800;8.596;2023-02-15T21:52:22;101692.47;;;9.26;54.25
36304;BME280;22335;49.800;8.596;2023-02-15T21:59:09;101679.72;;;9.15;54.56
36304;BME280;22335;49.800;8.596;2023-02-15T22:05:53;101692.56;;;9.31;54.28
36304;BME280;22335;49.800;8.596;2023-02-15T22:12:37;101687.50;;;9.23;54.49
36304;BME280;22335;49.800;8.596;2023-02-15T22:19:22;101675.50;;;9.24;54.52
36304;BME280;22335;49.800;8.596;2023-02-15T22:26:07;101570.50;;;8.52;54.58
36304;BME280;22335;49.800;8.596;2023-02-15T22:32:56;101675.34;;;9.14;54.24
36304;BME280;22335;49.800;8.596;2023-02-15T22:39:43;101677.63;;;9.05;54.22
36304;BME280;22335;49.800;8.596;2023-02-15T22:46:26;101690.81;;;8.96;54.54
36304;BME280;22335;49.800;8.596;2023-02-15T22:53:09;101682.31;;;8.93;54.90
36304;BME280;22335;49.800;8.596;2023-02-15T22:59:54;101685.50;;;8.90;54.94
36304;BME280;22335;49.800;8.596;2023-02-15T23:06:38;101675.53;;;8.95;54.63
36304;BME280;22335;49.800;8.596;2023-02-15T23:13:24;101656.31;;;8.90;55.00
36304;BME280;22335;49.800;8.596;2023-02-15T23:20:13;101674.91;;;8.76;55.07
36304;BME280;22335;49.800;8.596;2023-02-15T23:26:57;101594.94;;;8.36;54.89
36304;BME280;22335;49.800;8.596;2023-02-15T23:34:05;101676.66;;;8.83;54.60
36304;BME280;22335;49.800;8.596;2023-02-15T23:40:57;101667.63;;;8.82;55.12
36304;BME280;22335;49.800;8.596;2023-02-15T23:48:01;101672.72;;;8.78;54.91
36304;BME280;22335;49.800;8.596;2023-02-15T23:55:03;101675.00;;;8.70;55.28
